sensor_id;sensor_type;location;lat;lon;timestamp;temperature;humidity
15133;DHT22;7667;51.232;17.110;2022-10-22T00:00:53;9.40;99.90
15133;DHT22;7667;51.232;17.110;2022-10-22T00:03:21;9.40;99.90
15133;DHT22;7667;51.232;17.110;2022-10-22T00:05:49;9.40;99.90
15133;DHT22;7667;51.232;17.110;2022-10-22T00:08:16;9.30;99.90
15133;DHT22;7667;51.232;17.110;2022-10-22T00:10:44;9.20;99.90
15133;DHT22;7667;51.232;17.110;2022-10-22T00:13:12;9.10;99.90
15133;DHT22;7667;51.232;17.110;2022-10-22T00:15:40;9.20;99.90
15133;DHT22;7667;51.232;17.110;2022-10-22T00:18:07;9.30;99.90
15133;DHT22;7667;51.232;17.110;2022-10-22T00:20:35;9.30;99.90
15133;DHT22;7667;51.232;17.110;2022-10-22T00:23:03;9.20;99.90
15133;DHT22;7667;51.232;17.110;2022-10-22T00:25:30;9.10;99.90
15133;DHT22;7667;51.232;17.110;2022-10-22T00:28:01;9.20;99.90
15133;DHT22;7667;51.232;17.110;2022-10-22T00:30:29;9.20;99.90
15133;DHT22;7667;51.232;17.110;2022-10-22T00:32:57;9.30;99.90
15133;DHT22;7667;51.232;17.110;2022-10-22T00:35:24;9.30;99.90
15133;DHT22;7667;51.232;17.110;2022-10-22T00:37:51;9.30;99.90
15133;DHT22;7667;51.232;17.110;2022-10-22T00:40:19;9.40;99.90
15133;DHT22;7667;51.232;17.110;2022-10-22T00:42:47;9.30;99.90
15133;DHT22;7667;51.232;17.110;2022-10-22T00:45:21;9.30;99.90
15133;DHT22;7667;51.232;17.110;2022-10-22T00:48:09;9.40;99.90
15133;DHT22;7667;51.232;17.110;2022-10-22T00:50:55;9.30;99.90
15133;DHT22;7667;51.232;17.110;2022-10-22T00:53:40;9.30;99.90
15133;DHT22;7667;51.232;17.110;2022-10-22T00:56:11;9.30;99.90
15133;DHT22;7667;51.232;17.110;2022-10-22T00:58:44;9.30;99.90
15133;DHT22;7667;51.232;17.110;2022-10-22T01:01:22;9.30;99.90
15133;DHT22;7667;51.232;17.110;2022-10-22T01:03:51;9.30;99.90
15133;DHT22;7667;51.232;17.110;2022-10-22T01:06:32;9.30;99.90
15133;DHT22;7667;51.232;17.110;2022-10-22T01:09:07;9.30;99.90
15133;DHT22;7667;51.232;17.110;2022-10-22T01:15:01;9.40;99.90
15133;DHT22;7667;51.232;17.110;2022-10-22T01:18:00;9.30;99.90
15133;DHT22;7667;51.232;17.110;2022-10-22T01:29:00;9.30;99.90
15133;DHT22;7667;51.232;17.110;2022-10-22T01:31:33;9.30;99.90
15133;DHT22;7667;51.232;17.110;2022-10-22T01:34:03;9.20;99.90
15133;DHT22;7667;51.232;17.110;2022-10-22T01:36:34;9.10;99.90
15133;DHT22;7667;51.232;17.110;2022-10-22T01:39:02;9.20;99.90
15133;DHT22;7667;51.232;17.110;2022-10-22T01:41:32;9.20;99.90
15133;DHT22;7667;51.232;17.110;2022-10-22T01:44:01;9.20;99.90
15133;DHT22;7667;51.232;17.110;2022-10-22T01:46:28;9.20;99.90
15133;DHT22;7667;51.232;17.110;2022-10-22T01:55:54;9.10;99.90
15133;DHT22;7667;51.232;17.110;2022-10-22T02:03:51;8.80;99.90
15133;DHT22;7667;51.232;17.110;2022-10-22T02:06:28;8.70;99.90
15133;DHT22;7667;51.232;17.110;2022-10-22T02:08:57;8.70;99.90
15133;DHT22;7667;51.232;17.110;2022-10-22T02:11:26;8.60;99.90
15133;DHT22;7667;51.232;17.110;2022-10-22T02:13:58;8.60;99.90
15133;DHT22;7667;51.232;17.110;2022-10-22T02:16:34;8.60;99.90
15133;DHT22;7667;51.232;17.110;2022-10-22T02:19:22;8.50;99.90
15133;DHT22;7667;51.232;17.110;2022-10-22T02:21:52;8.40;99.90
15133;DHT22;7667;51.232;17.110;2022-10-22T02:24:21;8.30;99.90
15133;DHT22;7667;51.232;17.110;2022-10-22T02:32:27;8.00;99.90
15133;DHT22;7667;51.232;17.110;2022-10-22T02:34:59;7.90;99.90
15133;DHT22;7667;51.232;17.110;2022-10-22T02:37:27;7.90;99.90
15133;DHT22;7667;51.232;17.110;2022-10-22T02:39:55;7.80;99.90
15133;DHT22;7667;51.232;17.110;2022-10-22T02:42:24;7.70;99.90
15133;DHT22;7667;51.232;17.110;2022-10-22T02:44:52;7.70;99.90
15133;DHT22;7667;51.232;17.110;2022-10-22T02:47:20;7.50;99.90
15133;DHT22;7667;51.232;17.110;2022-10-22T02:49:48;7.50;99.90
15133;DHT22;7667;51.232;17.110;2022-10-22T02:52:15;7.60;99.90
15133;DHT22;7667;51.232;17.110;2022-10-22T02:54:42;7.60;99.90
15133;DHT22;7667;51.232;17.110;2022-10-22T02:57:10;7.60;99.90
15133;DHT22;7667;51.232;17.110;2022-10-22T02:59:37;7.50;99.90
15133;DHT22;7667;51.232;17.110;2022-10-22T03:02:05;7.60;99.90
15133;DHT22;7667;51.232;17.110;2022-10-22T03:04:33;7.60;99.90
15133;DHT22;7667;51.232;17.110;2022-10-22T03:07:01;7.50;99.90
15133;DHT22;7667;51.232;17.110;2022-10-22T03:09:28;7.40;99.90
15133;DHT22;7667;51.232;17.110;2022-10-22T03:11:56;7.40;99.90
15133;DHT22;7667;51.232;17.110;2022-10-22T03:14:23;7.30;99.90
15133;DHT22;7667;51.232;17.110;2022-10-22T03:16:51;7.30;99.90
15133;DHT22;7667;51.232;17.110;2022-10-22T03:19:18;7.30;99.90
15133;DHT22;7667;51.232;17.110;2022-10-22T03:21:52;7.20;99.90
15133;DHT22;7667;51.232;17.110;2022-10-22T03:24:33;7.10;99.90
15133;DHT22;7667;51.232;17.110;2022-10-22T03:27:02;7.10;99.90
15133;DHT22;7667;51.232;17.110;2022-10-22T03:29:32;7.20;99.90
15133;DHT22;7667;51.232;17.110;2022-10-22T03:32:02;7.20;99.90
15133;DHT22;7667;51.232;17.110;2022-10-22T03:34:30;7.30;99.90
15133;DHT22;7667;51.232;17.110;2022-10-22T03:36:59;7.30;99.90
15133;DHT22;7667;51.232;17.110;2022-10-22T03:39:29;7.30;99.90
15133;DHT22;7667;51.232;17.110;2022-10-22T03:41:58;7.40;99.90
15133;DHT22;7667;51.232;17.110;2022-10-22T03:44:26;7.50;99.90
15133;DHT22;7667;51.232;17.110;2022-10-22T03:46:54;7.60;99.90
15133;DHT22;7667;51.232;17.110;2022-10-22T03:49:27;7.70;99.90
15133;DHT22;7667;51.232;17.110;2022-10-22T03:51:55;7.70;99.90
15133;DHT22;7667;51.232;17.110;2022-10-22T03:54:22;7.80;99.90
15133;DHT22;7667;51.232;17.110;2022-10-22T03:56:50;7.90;99.90
15133;DHT22;7667;51.232;17.110;2022-10-22T03:59:17;8.10;99.90
15133;DHT22;7667;51.232;17.110;2022-10-22T04:01:45;8.20;99.90
15133;DHT22;7667;51.232;17.110;2022-10-22T04:04:12;8.20;99.90
15133;DHT22;7667;51.232;17.110;2022-10-22T04:06:40;8.30;99.90
15133;DHT22;7667;51.232;17.110;2022-10-22T04:09:07;8.20;99.90
15133;DHT22;7667;51.232;17.110;2022-10-22T04:11:35;8.30;99.90
15133;DHT22;7667;51.232;17.110;2022-10-22T04:14:02;8.30;99.90
15133;DHT22;7667;51.232;17.110;2022-10-22T04:16:30;8.40;99.90
15133;DHT22;7667;51.232;17.110;2022-10-22T04:18:58;8.40;99.90
15133;DHT22;7667;51.232;17.110;2022-10-22T04:21:26;8.40;99.90
15133;DHT22;7667;51.232;17.110;2022-10-22T04:23:53;8.30;99.90
15133;DHT22;7667;51.232;17.110;2022-10-22T04:26:21;8.20;99.90
15133;DHT22;7667;51.232;17.110;2022-10-22T04:28:50;8.20;99.90
15133;DHT22;7667;51.232;17.110;2022-10-22T04:31:23;8.30;99.90
15133;DHT22;7667;51.232;17.110;2022-10-22T04:33:53;8.30;99.90
15133;DHT22;7667;51.232;17.110;2022-10-22T04:36:22;8.30;99.90
15133;DHT22;7667;51.232;17.110;2022-10-22T04:38:57;8.40;99.90
15133;DHT22;7667;51.232;17.110;2022-10-22T04:41:31;8.40;99.90
15133;DHT22;7667;51.232;17.110;2022-10-22T04:44:00;8.30;99.90
15133;DHT22;7667;51.232;17.110;2022-10-22T04:46:31;8.30;99.90
15133;DHT22;7667;51.232;17.110;2022-10-22T04:48:59;8.40;99.90
15133;DHT22;7667;51.232;17.110;2022-10-22T04:51:27;8.50;99.90
15133;DHT22;7667;51.232;17.110;2022-10-22T04:53:54;8.50;99.90
15133;DHT22;7667;51.232;17.110;2022-10-22T04:56:24;8.50;99.90
15133;DHT22;7667;51.232;17.110;2022-10-22T04:58:58;8.50;99.90
15133;DHT22;7667;51.232;17.110;2022-10-22T05:01:35;8.40;99.90
15133;DHT22;7667;51.232;17.110;2022-10-22T05:04:11;8.50;99.90
15133;DHT22;7667;51.232;17.110;2022-10-22T05:06:42;8.50;99.90
15133;DHT22;7667;51.232;17.110;2022-10-22T05:09:16;8.60;99.90
15133;DHT22;7667;51.232;17.110;2022-10-22T05:11:47;8.70;99.90
15133;DHT22;7667;51.232;17.110;2022-10-22T05:14:18;8.80;99.90
15133;DHT22;7667;51.232;17.110;2022-10-22T05:16:48;8.90;99.90
15133;DHT22;7667;51.232;17.110;2022-10-22T05:19:21;8.90;99.90
15133;DHT22;7667;51.232;17.110;2022-10-22T05:21:52;8.90;99.90
15133;DHT22;7667;51.232;17.110;2022-10-22T05:24:20;8.80;99.90
15133;DHT22;7667;51.232;17.110;2022-10-22T05:26:52;8.80;99.90
15133;DHT22;7667;51.232;17.110;2022-10-22T05:29:21;8.90;99.90
15133;DHT22;7667;51.232;17.110;2022-10-22T05:31:49;8.90;99.90
15133;DHT22;7667;51.232;17.110;2022-10-22T05:34:17;9.00;99.90
15133;DHT22;7667;51.232;17.110;2022-10-22T05:36:45;9.10;99.90
15133;DHT22;7667;51.232;17.110;2022-10-22T05:39:12;9.20;99.90
15133;DHT22;7667;51.232;17.110;2022-10-22T05:41:40;9.20;99.90
15133;DHT22;7667;51.232;17.110;2022-10-22T05:44:10;9.20;99.90
15133;DHT22;7667;51.232;17.110;2022-10-22T05:46:39;9.30;99.90
15133;DHT22;7667;51.232;17.110;2022-10-22T05:49:06;9.40;99.90
15133;DHT22;7667;51.232;17.110;2022-10-22T05:51:35;9.40;99.90
15133;DHT22;7667;51.232;17.110;2022-10-22T05:54:06;9.50;99.90
15133;DHT22;7667;51.232;17.110;2022-10-22T05:56:34;9.60;99.90
15133;DHT22;7667;51.232;17.110;2022-10-22T05:59:03;9.60;99.90
15133;DHT22;7667;51.232;17.110;2022-10-22T06:01:32;9.60;99.90
15133;DHT22;7667;51.232;17.110;2022-10-22T06:04:04;9.50;99.90
15133;DHT22;7667;51.232;17.110;2022-10-22T06:06:44;9.50;99.90
15133;DHT22;7667;51.232;17.110;2022-10-22T06:09:20;9.50;99.90
15133;DHT22;7667;51.232;17.110;2022-10-22T06:11:50;9.60;99.90
15133;DHT22;7667;51.232;17.110;2022-10-22T06:14:18;9.70;99.90
15133;DHT22;7667;51.232;17.110;2022-10-22T06:16:47;9.80;99.90
15133;DHT22;7667;51.232;17.110;2022-10-22T06:19:17;9.90;99.90
15133;DHT22;7667;51.232;17.110;2022-10-22T06:21:47;9.80;99.90
15133;DHT22;7667;51.232;17.110;2022-10-22T06:24:15;9.70;99.90
15133;DHT22;7667;51.232;17.110;2022-10-22T06:26:42;9.70;99.90
15133;DHT22;7667;51.232;17.110;2022-10-22T06:29:10;9.60;99.90
15133;DHT22;7667;51.232;17.110;2022-10-22T06:31:38;9.50;99.90
15133;DHT22;7667;51.232;17.110;2022-10-22T06:34:07;9.50;99.90
15133;DHT22;7667;51.232;17.110;2022-10-22T06:36:38;9.50;99.90
15133;DHT22;7667;51.232;17.110;2022-10-22T06:39:11;9.50;99.90
15133;DHT22;7667;51.232;17.110;2022-10-22T06:41:40;9.50;99.90
15133;DHT22;7667;51.232;17.110;2022-10-22T06:44:13;9.50;99.90
15133;DHT22;7667;51.232;17.110;2022-10-22T06:46:42;9.60;99.90
15133;DHT22;7667;51.232;17.110;2022-10-22T06:49:12;9.70;99.90
15133;DHT22;7667;51.232;17.110;2022-10-22T06:51:41;9.80;99.90
15133;DHT22;7667;51.232;17.110;2022-10-22T06:54:09;9.90;99.90
15133;DHT22;7667;51.232;17.110;2022-10-22T06:56:36;9.90;99.90
15133;DHT22;7667;51.232;17.110;2022-10-22T06:59:04;9.90;99.90
15133;DHT22;7667;51.232;17.110;2022-10-22T07:01:33;10.00;99.90
15133;DHT22;7667;51.232;17.110;2022-10-22T07:04:01;10.10;99.90
15133;DHT22;7667;51.232;17.110;2022-10-22T07:06:29;10.10;99.90
15133;DHT22;7667;51.232;17.110;2022-10-22T07:08:58;10.00;99.90
15133;DHT22;7667;51.232;17.110;2022-10-22T07:11:41;10.10;99.90
15133;DHT22;7667;51.232;17.110;2022-10-22T07:14:10;10.20;99.90
15133;DHT22;7667;51.232;17.110;2022-10-22T07:16:38;10.30;99.90
15133;DHT22;7667;51.232;17.110;2022-10-22T07:19:09;10.20;99.90
15133;DHT22;7667;51.232;17.110;2022-10-22T07:21:36;10.30;99.90
15133;DHT22;7667;51.232;17.110;2022-10-22T07:24:04;10.30;99.90
15133;DHT22;7667;51.232;17.110;2022-10-22T07:26:32;10.40;99.90
15133;DHT22;7667;51.232;17.110;2022-10-22T07:29:00;10.40;99.90
15133;DHT22;7667;51.232;17.110;2022-10-22T07:31:28;10.50;99.90
15133;DHT22;7667;51.232;17.110;2022-10-22T07:33:56;10.60;99.90
15133;DHT22;7667;51.232;17.110;2022-10-22T07:36:24;10.70;99.90
15133;DHT22;7667;51.232;17.110;2022-10-22T07:38:56;10.80;99.90
15133;DHT22;7667;51.232;17.110;2022-10-22T07:41:26;10.90;99.90
15133;DHT22;7667;51.232;17.110;2022-10-22T07:43:55;10.90;99.90
15133;DHT22;7667;51.232;17.110;2022-10-22T07:46:24;11.10;99.90
15133;DHT22;7667;51.232;17.110;2022-10-22T07:48:52;11.20;99.90
15133;DHT22;7667;51.232;17.110;2022-10-22T07:51:19;11.20;99.90
15133;DHT22;7667;51.232;17.110;2022-10-22T07:53:47;11.30;99.90
15133;DHT22;7667;51.232;17.110;2022-10-22T07:56:14;11.20;99.90
15133;DHT22;7667;51.232;17.110;2022-10-22T07:58:42;11.20;99.90
15133;DHT22;7667;51.232;17.110;2022-10-22T08:01:09;11.20;99.90
15133;DHT22;7667;51.232;17.110;2022-10-22T08:03:37;11.20;99.90
15133;DHT22;7667;51.232;17.110;2022-10-22T08:06:05;11.20;99.90
15133;DHT22;7667;51.232;17.110;2022-10-22T08:08:32;11.30;99.90
15133;DHT22;7667;51.232;17.110;2022-10-22T08:11:00;11.30;99.90
15133;DHT22;7667;51.232;17.110;2022-10-22T08:13:28;11.30;99.90
15133;DHT22;7667;51.232;17.110;2022-10-22T08:16:00;11.20;99.90
15133;DHT22;7667;51.232;17.110;2022-10-22T08:18:28;11.20;99.90
15133;DHT22;7667;51.232;17.110;2022-10-22T08:20:55;11.30;99.90
15133;DHT22;7667;51.232;17.110;2022-10-22T08:23:24;11.30;99.90
15133;DHT22;7667;51.232;17.110;2022-10-22T08:25:55;11.30;99.90
15133;DHT22;7667;51.232;17.110;2022-10-22T08:28:24;11.30;99.90
15133;DHT22;7667;51.232;17.110;2022-10-22T08:30:51;11.40;99.90
15133;DHT22;7667;51.232;17.110;2022-10-22T08:33:19;11.40;99.90
15133;DHT22;7667;51.232;17.110;2022-10-22T08:35:50;11.40;99.90
15133;DHT22;7667;51.232;17.110;2022-10-22T08:38:19;11.40;99.90
15133;DHT22;7667;51.232;17.110;2022-10-22T08:40:50;11.50;99.90
15133;DHT22;7667;51.232;17.110;2022-10-22T08:43:27;11.50;99.90
15133;DHT22;7667;51.232;17.110;2022-10-22T08:49:18;11.60;99.90
15133;DHT22;7667;51.232;17.110;2022-10-22T08:51:48;11.50;99.90
15133;DHT22;7667;51.232;17.110;2022-10-22T08:54:30;11.40;99.90
15133;DHT22;7667;51.232;17.110;2022-10-22T08:57:13;11.40;99.90
15133;DHT22;7667;51.232;17.110;2022-10-22T09:08:19;12.10;99.90
15133;DHT22;7667;51.232;17.110;2022-10-22T09:10:50;12.20;99.90
15133;DHT22;7667;51.232;17.110;2022-10-22T09:13:20;12.30;99.90
15133;DHT22;7667;51.232;17.110;2022-10-22T09:15:56;12.50;99.90
15133;DHT22;7667;51.232;17.110;2022-10-22T09:18:34;12.60;99.90
15133;DHT22;7667;51.232;17.110;2022-10-22T09:26:33;12.70;99.90
15133;DHT22;7667;51.232;17.110;2022-10-22T09:29:04;12.60;99.90
15133;DHT22;7667;51.232;17.110;2022-10-22T09:31:33;12.50;99.90
15133;DHT22;7667;51.232;17.110;2022-10-22T09:34:01;12.50;99.90
15133;DHT22;7667;51.232;17.110;2022-10-22T09:36:34;12.50;99.90
15133;DHT22;7667;51.232;17.110;2022-10-22T09:39:02;12.50;99.90
15133;DHT22;7667;51.232;17.110;2022-10-22T09:41:30;12.40;99.90
15133;DHT22;7667;51.232;17.110;2022-10-22T09:43:57;12.50;99.90
15133;DHT22;7667;51.232;17.110;2022-10-22T09:46:29;12.50;99.90
15133;DHT22;7667;51.232;17.110;2022-10-22T09:49:15;12.60;99.90
15133;DHT22;7667;51.232;17.110;2022-10-22T09:51:49;12.70;99.90
15133;DHT22;7667;51.232;17.110;2022-10-22T09:57:14;13.10;99.90
15133;DHT22;7667;51.232;17.110;2022-10-22T09:59:46;13.20;99.90
15133;DHT22;7667;51.232;17.110;2022-10-22T10:02:25;13.10;99.90
15133;DHT22;7667;51.232;17.110;2022-10-22T10:05:07;12.90;99.90
15133;DHT22;7667;51.232;17.110;2022-10-22T10:07:35;12.90;99.90
15133;DHT22;7667;51.232;17.110;2022-10-22T10:10:18;12.80;99.90
15133;DHT22;7667;51.232;17.110;2022-10-22T10:16:53;12.60;99.90
15133;DHT22;7667;51.232;17.110;2022-10-22T10:21:54;12.60;99.90
15133;DHT22;7667;51.232;17.110;2022-10-22T10:27:22;12.50;99.90
15133;DHT22;7667;51.232;17.110;2022-10-22T10:32:51;12.50;99.90
15133;DHT22;7667;51.232;17.110;2022-10-22T10:36:01;12.50;99.90
15133;DHT22;7667;51.232;17.110;2022-10-22T10:41:15;12.30;99.90
15133;DHT22;7667;51.232;17.110;2022-10-22T10:50:04;12.10;99.90
15133;DHT22;7667;51.232;17.110;2022-10-22T10:53:13;12.00;99.90
15133;DHT22;7667;51.232;17.110;2022-10-22T11:07:16;12.00;99.90
15133;DHT22;7667;51.232;17.110;2022-10-22T11:10:48;12.10;99.90
15133;DHT22;7667;51.232;17.110;2022-10-22T11:19:04;12.50;99.90
15133;DHT22;7667;51.232;17.110;2022-10-22T11:28:04;12.90;99.90
15133;DHT22;7667;51.232;17.110;2022-10-22T11:30:59;12.80;99.90
15133;DHT22;7667;51.232;17.110;2022-10-22T11:34:18;12.80;99.90
15133;DHT22;7667;51.232;17.110;2022-10-22T11:37:05;12.90;99.90
15133;DHT22;7667;51.232;17.110;2022-10-22T11:42:19;12.90;99.90
15133;DHT22;7667;51.232;17.110;2022-10-22T11:45:25;12.80;99.90
15133;DHT22;7667;51.232;17.110;2022-10-22T11:50:44;13.20;99.90
15133;DHT22;7667;51.232;17.110;2022-10-22T11:53:32;13.20;99.90
15133;DHT22;7667;51.232;17.110;2022-10-22T11:58:40;13.20;99.90
15133;DHT22;7667;51.232;17.110;2022-10-22T12:03:38;13.10;99.90
15133;DHT22;7667;51.232;17.110;2022-10-22T12:08:55;12.90;99.90
15133;DHT22;7667;51.232;17.110;2022-10-22T12:11:46;12.90;99.90
15133;DHT22;7667;51.232;17.110;2022-10-22T12:19:46;12.90;99.90
15133;DHT22;7667;51.232;17.110;2022-10-22T12:22:35;13.10;99.90
15133;DHT22;7667;51.232;17.110;2022-10-22T12:25:24;13.10;99.90
15133;DHT22;7667;51.232;17.110;2022-10-22T12:28:01;13.20;99.90
15133;DHT22;7667;51.232;17.110;2022-10-22T12:30:32;13.40;99.90
15133;DHT22;7667;51.232;17.110;2022-10-22T12:33:05;13.50;99.90
15133;DHT22;7667;51.232;17.110;2022-10-22T12:35:41;13.40;99.90
15133;DHT22;7667;51.232;17.110;2022-10-22T12:38:15;13.30;99.90
15133;DHT22;7667;51.232;17.110;2022-10-22T12:40:44;13.30;99.90
15133;DHT22;7667;51.232;17.110;2022-10-22T12:43:22;13.20;99.90
15133;DHT22;7667;51.232;17.110;2022-10-22T12:45:55;13.10;99.90
15133;DHT22;7667;51.232;17.110;2022-10-22T12:48:29;13.10;99.90
15133;DHT22;7667;51.232;17.110;2022-10-22T12:51:02;13.10;99.90
15133;DHT22;7667;51.232;17.110;2022-10-22T12:53:51;13.10;99.90
15133;DHT22;7667;51.232;17.110;2022-10-22T12:56:26;13.00;99.90
15133;DHT22;7667;51.232;17.110;2022-10-22T12:59:06;13.00;99.90
15133;DHT22;7667;51.232;17.110;2022-10-22T13:01:41;13.00;99.90
15133;DHT22;7667;51.232;17.110;2022-10-22T13:04:20;13.00;99.90
15133;DHT22;7667;51.232;17.110;2022-10-22T13:09:58;13.00;99.90
15133;DHT22;7667;51.232;17.110;2022-10-22T13:12:33;13.00;99.90
15133;DHT22;7667;51.232;17.110;2022-10-22T13:15:19;13.00;99.90
15133;DHT22;7667;51.232;17.110;2022-10-22T13:18:20;13.00;99.90
15133;DHT22;7667;51.232;17.110;2022-10-22T13:20:55;13.10;99.90
15133;DHT22;7667;51.232;17.110;2022-10-22T13:23:27;13.10;99.90
15133;DHT22;7667;51.232;17.110;2022-10-22T13:28:36;13.10;99.90
15133;DHT22;7667;51.232;17.110;2022-10-22T13:31:25;13.10;99.90
15133;DHT22;7667;51.232;17.110;2022-10-22T13:34:02;13.10;99.90
15133;DHT22;7667;51.232;17.110;2022-10-22T13:36:37;13.10;99.90
15133;DHT22;7667;51.232;17.110;2022-10-22T13:39:06;13.10;99.90
15133;DHT22;7667;51.232;17.110;2022-10-22T13:41:40;13.20;99.90
15133;DHT22;7667;51.232;17.110;2022-10-22T13:44:07;13.10;99.90
15133;DHT22;7667;51.232;17.110;2022-10-22T13:46:35;13.10;99.90
15133;DHT22;7667;51.232;17.110;2022-10-22T13:49:19;13.00;99.90
15133;DHT22;7667;51.232;17.110;2022-10-22T13:51:49;13.00;99.90
15133;DHT22;7667;51.232;17.110;2022-10-22T13:54:22;13.00;99.90
15133;DHT22;7667;51.232;17.110;2022-10-22T13:56:50;13.00;99.90
15133;DHT22;7667;51.232;17.110;2022-10-22T13:59:18;13.10;99.90
15133;DHT22;7667;51.232;17.110;2022-10-22T14:01:49;13.10;99.90
15133;DHT22;7667;51.232;17.110;2022-10-22T14:04:17;13.10;99.90
15133;DHT22;7667;51.232;17.110;2022-10-22T14:06:45;13.10;99.90
15133;DHT22;7667;51.232;17.110;2022-10-22T14:09:14;13.10;99.90
15133;DHT22;7667;51.232;17.110;2022-10-22T14:11:42;13.00;99.90
15133;DHT22;7667;51.232;17.110;2022-10-22T14:14:09;13.00;99.90
15133;DHT22;7667;51.232;17.110;2022-10-22T14:16:40;13.00;99.90
15133;DHT22;7667;51.232;17.110;2022-10-22T14:19:14;13.00;99.90
15133;DHT22;7667;51.232;17.110;2022-10-22T14:21:42;13.00;99.90
15133;DHT22;7667;51.232;17.110;2022-10-22T14:24:10;13.00;99.90
15133;DHT22;7667;51.232;17.110;2022-10-22T14:26:39;13.00;99.90
15133;DHT22;7667;51.232;17.110;2022-10-22T14:29:07;13.00;99.90
15133;DHT22;7667;51.232;17.110;2022-10-22T14:31:41;13.00;99.90
15133;DHT22;7667;51.232;17.110;2022-10-22T14:34:13;13.00;99.90
15133;DHT22;7667;51.232;17.110;2022-10-22T14:36:41;12.90;99.90
15133;DHT22;7667;51.232;17.110;2022-10-22T14:39:12;12.90;99.90
15133;DHT22;7667;51.232;17.110;2022-10-22T14:41:40;12.90;99.90
15133;DHT22;7667;51.232;17.110;2022-10-22T14:44:11;12.90;99.90
15133;DHT22;7667;51.232;17.110;2022-10-22T14:46:40;12.90;99.90
15133;DHT22;7667;51.232;17.110;2022-10-22T14:49:10;12.90;99.90
15133;DHT22;7667;51.232;17.110;2022-10-22T14:51:38;12.90;99.90
15133;DHT22;7667;51.232;17.110;2022-10-22T14:54:05;13.00;99.90
15133;DHT22;7667;51.232;17.110;2022-10-22T14:56:33;13.00;99.90
15133;DHT22;7667;51.232;17.110;2022-10-22T14:59:06;13.00;99.90
15133;DHT22;7667;51.232;17.110;2022-10-22T15:01:33;13.00;99.90
15133;DHT22;7667;51.232;17.110;2022-10-22T15:04:01;13.00;99.90
15133;DHT22;7667;51.232;17.110;2022-10-22T15:06:29;13.10;99.90
15133;DHT22;7667;51.232;17.110;2022-10-22T15:08:56;13.00;99.90
15133;DHT22;7667;51.232;17.110;2022-10-22T15:11:24;13.10;99.90
15133;DHT22;7667;51.232;17.110;2022-10-22T15:13:52;13.10;99.90
15133;DHT22;7667;51.232;17.110;2022-10-22T15:16:19;13.00;99.90
15133;DHT22;7667;51.232;17.110;2022-10-22T15:18:46;13.00;99.90
15133;DHT22;7667;51.232;17.110;2022-10-22T15:21:18;13.00;99.90
15133;DHT22;7667;51.232;17.110;2022-10-22T15:23:47;13.00;99.90
15133;DHT22;7667;51.232;17.110;2022-10-22T15:26:16;13.00;99.90
15133;DHT22;7667;51.232;17.110;2022-10-22T15:28:43;13.00;99.90
15133;DHT22;7667;51.232;17.110;2022-10-22T15:31:12;13.00;99.90
15133;DHT22;7667;51.232;17.110;2022-10-22T15:33:41;13.00;99.90
15133;DHT22;7667;51.232;17.110;2022-10-22T15:36:18;13.00;99.90
15133;DHT22;7667;51.232;17.110;2022-10-22T15:38:45;13.00;99.90
15133;DHT22;7667;51.232;17.110;2022-10-22T15:41:13;13.00;99.90
15133;DHT22;7667;51.232;17.110;2022-10-22T15:43:40;13.00;99.90
15133;DHT22;7667;51.232;17.110;2022-10-22T15:46:16;13.00;99.90
15133;DHT22;7667;51.232;17.110;2022-10-22T15:48:45;13.00;99.90
15133;DHT22;7667;51.232;17.110;2022-10-22T15:51:16;13.00;99.90
15133;DHT22;7667;51.232;17.110;2022-10-22T15:53:56;13.00;99.90
15133;DHT22;7667;51.232;17.110;2022-10-22T15:56:26;13.00;99.90
15133;DHT22;7667;51.232;17.110;2022-10-22T15:58:56;13.00;99.90
15133;DHT22;7667;51.232;17.110;2022-10-22T16:01:32;13.00;99.90
15133;DHT22;7667;51.232;17.110;2022-10-22T16:04:00;13.00;99.90
15133;DHT22;7667;51.232;17.110;2022-10-22T16:06:35;13.00;99.90
15133;DHT22;7667;51.232;17.110;2022-10-22T16:09:09;13.00;99.90
15133;DHT22;7667;51.232;17.110;2022-10-22T16:11:39;13.00;99.90
15133;DHT22;7667;51.232;17.110;2022-10-22T16:14:12;13.00;99.90
15133;DHT22;7667;51.232;17.110;2022-10-22T16:16:43;13.00;99.90
15133;DHT22;7667;51.232;17.110;2022-10-22T16:19:15;12.90;99.90
15133;DHT22;7667;51.232;17.110;2022-10-22T16:21:43;12.90;99.90
15133;DHT22;7667;51.232;17.110;2022-10-22T16:24:11;12.90;99.90
15133;DHT22;7667;51.232;17.110;2022-10-22T16:26:39;12.90;99.90
15133;DHT22;7667;51.232;17.110;2022-10-22T16:29:06;13.00;99.90
15133;DHT22;7667;51.232;17.110;2022-10-22T16:31:36;12.90;99.90
15133;DHT22;7667;51.232;17.110;2022-10-22T16:34:05;12.90;99.90
15133;DHT22;7667;51.232;17.110;2022-10-22T16:36:33;12.90;99.90
15133;DHT22;7667;51.232;17.110;2022-10-22T16:39:03;12.90;99.90
15133;DHT22;7667;51.232;17.110;2022-10-22T16:41:31;12.90;99.90
15133;DHT22;7667;51.232;17.110;2022-10-22T16:44:04;13.00;99.90
15133;DHT22;7667;51.232;17.110;2022-10-22T16:46:34;12.90;99.90
15133;DHT22;7667;51.232;17.110;2022-10-22T16:49:06;12.90;99.90
15133;DHT22;7667;51.232;17.110;2022-10-22T16:51:34;12.90;99.90
15133;DHT22;7667;51.232;17.110;2022-10-22T16:54:02;12.90;99.90
15133;DHT22;7667;51.232;17.110;2022-10-22T16:56:35;12.90;99.90
15133;DHT22;7667;51.232;17.110;2022-10-22T16:59:03;12.90;99.90
15133;DHT22;7667;51.232;17.110;2022-10-22T17:01:30;12.90;99.90
15133;DHT22;7667;51.232;17.110;2022-10-22T17:04:03;12.90;99.90
15133;DHT22;7667;51.232;17.110;2022-10-22T17:06:31;13.00;99.90
15133;DHT22;7667;51.232;17.110;2022-10-22T17:08:58;13.00;99.90
15133;DHT22;7667;51.232;17.110;2022-10-22T17:11:26;13.00;99.90
15133;DHT22;7667;51.232;17.110;2022-10-22T17:13:56;13.00;99.90
15133;DHT22;7667;51.232;17.110;2022-10-22T17:16:24;13.00;99.90
15133;DHT22;7667;51.232;17.110;2022-10-22T17:18:55;12.90;99.90
15133;DHT22;7667;51.232;17.110;2022-10-22T17:21:23;12.90;99.90
15133;DHT22;7667;51.232;17.110;2022-10-22T17:23:55;12.80;99.90
15133;DHT22;7667;51.232;17.110;2022-10-22T17:26:24;12.80;99.90
15133;DHT22;7667;51.232;17.110;2022-10-22T17:28:53;12.80;99.90
15133;DHT22;7667;51.232;17.110;2022-10-22T17:31:26;12.80;99.90
15133;DHT22;7667;51.232;17.110;2022-10-22T17:33:55;12.80;99.90
15133;DHT22;7667;51.232;17.110;2022-10-22T17:36:23;12.90;99.90
15133;DHT22;7667;51.232;17.110;2022-10-22T17:38:56;12.90;99.90
15133;DHT22;7667;51.232;17.110;2022-10-22T17:41:30;12.90;99.90
15133;DHT22;7667;51.232;17.110;2022-10-22T17:44:02;13.00;99.90
15133;DHT22;7667;51.232;17.110;2022-10-22T17:46:31;13.00;99.90
15133;DHT22;7667;51.232;17.110;2022-10-22T17:49:01;13.10;99.90
15133;DHT22;7667;51.232;17.110;2022-10-22T17:51:31;13.10;99.90
15133;DHT22;7667;51.232;17.110;2022-10-22T17:53:59;13.10;99.90
15133;DHT22;7667;51.232;17.110;2022-10-22T17:56:30;13.10;99.90
15133;DHT22;7667;51.232;17.110;2022-10-22T17:58:57;13.10;99.90
15133;DHT22;7667;51.232;17.110;2022-10-22T18:01:30;13.10;99.90
15133;DHT22;7667;51.232;17.110;2022-10-22T18:04:05;13.10;99.90